Pagina principale
METAR-TAF:

METAR-TAF

Aeroporti :

Monte Malanotte

Prato Nevoso, Italia

latitudine: 44-15N, longitudine: 007-48E, altezza: 1741 m

Osservazione

Il bollettino è stato emesso 54 minuti fa, alle 09:55 UTC
Vento 3 kt da direzioni variabili
Temperature 13°C
Umidità 94%
Pressione 1020 hPa
Visibilità: 4800 m
Nuvoloso ad un'altezza di 1800 ft
foschia

METAR: LIMY 150955Z VRB03KT 4800 BR BKN018 13/12 Q1020 RMK OVC SCT066 VAL FOSCHIA VIS MIN 4800

Ora: 12:49 (10:49 UTC)


TAF: mancante

Osservazioni e previsioni meteorologiche di più di 4000 aeroporti (messaggi METAR e TAF).

Le stazioni disponibili sono rappresentate dai dischi gialli e rossi sulla carta.

Puntare il mouse per vedere il nome della stazione.

Clicca sopra per visualizzare le osservazioni e previsioni meteorologiche.

Per cambiare la mappa : fare clic sui pulsanti verdi con una croce nera per ingrandire, il pulsante verde con un trattino per diminuire, o sulla freccia verde per le mappe adiacenti.


METAR-TAF: